createdAt,value
2018-09-21T00:00:27.159Z,99.90
2018-09-21T00:02:55.556Z,99.90
2018-09-21T00:05:24.009Z,99.90
2018-09-21T00:07:52.436Z,99.90
2018-09-21T00:10:20.896Z,99.90
2018-09-21T00:12:49.300Z,99.90
2018-09-21T00:15:17.700Z,99.90
2018-09-21T00:17:46.121Z,99.90
2018-09-21T00:20:14.541Z,99.90
2018-09-21T00:22:42.969Z,99.90
2018-09-21T00:25:11.369Z,99.90
2018-09-21T00:27:39.792Z,99.90
2018-09-21T00:30:08.234Z,99.90
2018-09-21T00:32:36.696Z,99.90
2018-09-21T00:35:05.085Z,99.90
2018-09-21T00:37:33.509Z,99.90
2018-09-21T00:40:01.913Z,99.90
2018-09-21T00:42:30.344Z,99.90
2018-09-21T00:44:58.765Z,99.90
2018-09-21T00:47:27.180Z,99.90
2018-09-21T00:49:55.714Z,99.90
2018-09-21T00:52:24.132Z,99.90
2018-09-21T00:54:52.552Z,99.90
2018-09-21T00:57:21.165Z,99.90
2018-09-21T00:59:49.581Z,99.90
2018-09-21T01:02:18.009Z,99.90
2018-09-21T01:04:46.449Z,99.90
2018-09-21T01:07:15.596Z,99.90
2018-09-21T01:09:44.703Z,99.90
2018-09-21T01:12:13.113Z,99.90
2018-09-21T01:14:41.527Z,99.90
2018-09-21T01:17:09.949Z,99.90
2018-09-21T01:19:38.382Z,99.90
2018-09-21T01:22:06.830Z,99.90
2018-09-21T01:24:35.275Z,99.90
2018-09-21T01:27:03.709Z,99.90
2018-09-21T01:29:32.133Z,99.90
2018-09-21T01:32:00.555Z,99.90
2018-09-21T01:34:29.237Z,99.90
2018-09-21T01:36:57.669Z,99.90
2018-09-21T01:39:26.092Z,99.90
2018-09-21T01:41:54.501Z,99.90
2018-09-21T01:44:22.897Z,99.90
2018-09-21T01:46:51.313Z,99.90
2018-09-21T01:49:19.732Z,99.90
2018-09-21T01:51:48.370Z,99.90
2018-09-21T01:54:16.775Z,99.90
2018-09-21T01:56:45.213Z,99.90
2018-09-21T01:59:13.631Z,99.90
2018-09-21T02:01:42.069Z,99.90
2018-09-21T02:04:10.494Z,99.90
2018-09-21T02:06:38.900Z,99.90
2018-09-21T02:09:08.915Z,99.90
2018-09-21T02:11:37.329Z,99.90
2018-09-21T02:14:06.062Z,99.90
2018-09-21T02:16:34.502Z,99.90
2018-09-21T02:19:02.933Z,99.90
2018-09-21T02:21:31.332Z,99.90
2018-09-21T02:23:59.759Z,99.90
2018-09-21T02:26:28.186Z,99.90
2018-09-21T02:28:56.604Z,99.90
2018-09-21T02:31:25.011Z,99.90
2018-09-21T02:33:53.428Z,99.90
2018-09-21T02:36:21.841Z,99.90
2018-09-21T02:38:50.277Z,99.90
2018-09-21T02:41:18.768Z,99.90
2018-09-21T02:43:47.173Z,99.90
2018-09-21T02:46:15.585Z,99.90
2018-09-21T02:48:44.030Z,99.90
2018-09-21T02:51:12.432Z,99.90
2018-09-21T02:53:40.836Z,99.90
2018-09-21T02:56:09.236Z,99.90
2018-09-21T02:58:37.645Z,99.90
2018-09-21T03:01:06.185Z,99.90
2018-09-21T03:03:34.609Z,99.90
2018-09-21T03:06:03.030Z,99.90
2018-09-21T03:08:31.460Z,99.90
2018-09-21T03:11:00.196Z,99.90
2018-09-21T03:13:28.620Z,99.90
2018-09-21T03:15:57.040Z,99.90
2018-09-21T03:18:25.436Z,99.90
2018-09-21T03:20:53.917Z,99.90
2018-09-21T03:23:22.318Z,99.90
2018-09-21T03:25:50.741Z,99.90
2018-09-21T03:28:19.162Z,99.90
2018-09-21T03:30:47.593Z,99.90
2018-09-21T03:33:16.006Z,99.90
2018-09-21T03:35:44.437Z,99.90
2018-09-21T03:38:12.856Z,99.90
2018-09-21T03:47:38.187Z,99.90
2018-09-21T03:50:06.909Z,99.90
2018-09-21T03:52:35.337Z,99.90
2018-09-21T03:55:03.805Z,99.90
2018-09-21T03:57:32.221Z,99.90
2018-09-21T04:00:00.621Z,99.90
2018-09-21T04:02:29.015Z,99.90
2018-09-21T04:04:57.544Z,99.90
2018-09-21T04:07:25.992Z,99.90
2018-09-21T04:09:54.429Z,99.90
2018-09-21T04:12:22.884Z,99.90
2018-09-21T04:14:51.428Z,99.90
2018-09-21T04:17:19.903Z,99.90
2018-09-21T04:19:48.410Z,99.90
2018-09-21T04:22:16.886Z,99.90
2018-09-21T04:24:45.950Z,99.90
2018-09-21T04:27:14.581Z,99.90
2018-09-21T04:29:43.179Z,99.90
2018-09-21T04:32:11.628Z,99.90
2018-09-21T04:34:40.133Z,99.90
2018-09-21T04:37:08.597Z,99.90
2018-09-21T04:39:37.335Z,99.90
2018-09-21T04:42:05.765Z,99.90
2018-09-21T04:44:34.244Z,99.90
2018-09-21T04:47:02.736Z,99.90
2018-09-21T04:49:31.207Z,99.90
2018-09-21T04:51:59.643Z,99.90
2018-09-21T04:54:28.084Z,99.90
2018-09-21T04:56:56.489Z,99.90
2018-09-21T04:59:24.896Z,99.90
2018-09-21T05:01:53.334Z,99.90
2018-09-21T05:04:21.729Z,99.90
2018-09-21T05:06:50.153Z,99.90
2018-09-21T05:09:18.557Z,99.90
2018-09-21T05:11:46.970Z,99.90
2018-09-21T05:14:15.432Z,99.90
2018-09-21T05:16:43.842Z,99.90
2018-09-21T05:19:12.248Z,99.90
2018-09-21T05:21:40.636Z,99.90
2018-09-21T05:24:09.574Z,99.90
2018-09-21T05:26:38.017Z,99.90
2018-09-21T05:29:06.756Z,99.90
2018-09-21T05:31:35.189Z,99.90
2018-09-21T05:34:03.653Z,99.90
2018-09-21T05:36:32.037Z,99.90
2018-09-21T05:39:00.493Z,99.90
2018-09-21T05:41:28.896Z,99.90
2018-09-21T05:43:57.309Z,99.90
2018-09-21T05:46:25.737Z,99.90
2018-09-21T05:49:57.864Z,99.90
2018-09-21T05:52:26.277Z,99.90
2018-09-21T05:54:54.689Z,99.90
2018-09-21T05:57:23.080Z,99.90
2018-09-21T05:59:51.521Z,99.90
2018-09-21T06:02:20.099Z,99.90
2018-09-21T06:04:53.021Z,99.90
2018-09-21T06:07:21.466Z,99.90
2018-09-21T06:09:49.889Z,99.90
2018-09-21T06:12:18.300Z,99.90
2018-09-21T06:14:46.753Z,99.90
2018-09-21T06:17:15.153Z,99.90
2018-09-21T06:19:43.571Z,99.90
2018-09-21T06:22:11.989Z,99.90
2018-09-21T06:24:40.416Z,99.90
2018-09-21T06:27:08.796Z,99.90
2018-09-21T06:29:37.224Z,99.90
2018-09-21T06:32:05.670Z,99.90
2018-09-21T06:34:34.080Z,99.90
2018-09-21T06:37:02.468Z,99.90
2018-09-21T06:39:30.900Z,99.90
2018-09-21T06:41:59.292Z,99.90
2018-09-21T06:44:27.862Z,99.90
2018-09-21T06:46:56.261Z,99.90
2018-09-21T06:49:24.689Z,99.90
2018-09-21T06:51:53.097Z,99.90
2018-09-21T06:54:21.519Z,99.90
2018-09-21T06:56:49.925Z,99.90
2018-09-21T06:59:18.393Z,99.90
2018-09-21T07:01:46.831Z,99.90
2018-09-21T07:04:15.308Z,99.90
2018-09-21T07:06:43.699Z,99.90
2018-09-21T07:09:13.779Z,99.90
2018-09-21T07:11:42.972Z,99.90
2018-09-21T07:14:12.189Z,99.90
2018-09-21T07:16:40.765Z,99.90
2018-09-21T07:19:09.197Z,99.90
2018-09-21T07:21:37.616Z,99.90
2018-09-21T07:24:06.045Z,99.90
2018-09-21T07:26:34.465Z,99.90
2018-09-21T07:29:03.625Z,99.90
2018-09-21T07:31:32.040Z,99.90
2018-09-21T07:34:00.498Z,99.90
2018-09-21T07:36:28.921Z,99.90
2018-09-21T07:38:57.382Z,99.90
2018-09-21T07:41:25.808Z,99.90
2018-09-21T07:43:54.253Z,99.90
2018-09-21T07:46:22.688Z,99.90
2018-09-21T07:48:51.174Z,99.90
2018-09-21T07:51:19.573Z,99.90
2018-09-21T07:54:51.313Z,99.90
2018-09-21T07:57:19.805Z,99.90
2018-09-21T07:59:48.269Z,99.90
2018-09-21T08:02:16.680Z,99.90
2018-09-21T08:04:45.116Z,99.90
2018-09-21T08:07:13.531Z,99.90
2018-09-21T08:09:41.962Z,99.90
2018-09-21T08:12:10.375Z,99.90
2018-09-21T08:14:38.796Z,99.90
2018-09-21T08:17:07.289Z,99.90
2018-09-21T08:19:35.884Z,99.90
2018-09-21T08:22:04.245Z,99.90
2018-09-21T08:24:32.664Z,99.90
2018-09-21T08:27:01.136Z,99.90
2018-09-21T08:29:29.573Z,99.90
2018-09-21T08:31:57.977Z,99.90
2018-09-21T08:34:26.388Z,99.90
2018-09-21T08:36:54.790Z,99.90
2018-09-21T08:39:23.244Z,99.90
2018-09-21T08:41:51.637Z,99.90
2018-09-21T08:44:20.065Z,99.90
2018-09-21T08:46:48.476Z,99.90
2018-09-21T08:49:17.018Z,99.90
2018-09-21T08:51:45.497Z,99.90
2018-09-21T08:54:13.950Z,99.90
2018-09-21T08:56:42.360Z,99.90
2018-09-21T08:59:10.829Z,99.90
2018-09-21T09:01:39.269Z,99.90
2018-09-21T09:04:07.936Z,99.90
2018-09-21T09:06:36.358Z,99.90
2018-09-21T09:09:07.921Z,99.90
2018-09-21T09:11:36.621Z,99.90
2018-09-21T09:14:05.173Z,99.90
2018-09-21T09:16:33.623Z,99.90
2018-09-21T09:19:02.154Z,99.90
2018-09-21T09:21:30.725Z,99.90
2018-09-21T09:23:59.144Z,99.90
2018-09-21T09:26:27.604Z,99.90
2018-09-21T09:28:56.029Z,99.90
2018-09-21T09:31:24.456Z,99.90
2018-09-21T09:33:52.888Z,99.90
2018-09-21T09:36:21.461Z,99.90
2018-09-21T09:38:49.904Z,99.90
2018-09-21T09:41:18.352Z,99.90
2018-09-21T09:43:46.790Z,99.90
2018-09-21T09:46:15.217Z,99.90
2018-09-21T09:48:43.710Z,99.90
2018-09-21T09:51:12.112Z,99.90
2018-09-21T09:53:40.573Z,99.90
2018-09-21T09:56:09.037Z,99.90
2018-09-21T09:58:37.468Z,99.90
2018-09-21T10:01:06.373Z,99.90
2018-09-21T10:03:34.845Z,99.90
2018-09-21T10:06:03.281Z,99.90
2018-09-21T10:08:31.696Z,99.90
2018-09-21T10:11:00.126Z,99.90
2018-09-21T10:13:28.525Z,99.90
2018-09-21T10:15:57.006Z,99.90
2018-09-21T10:18:25.406Z,99.90
2018-09-21T10:20:53.841Z,99.90
2018-09-21T10:23:22.272Z,99.90
2018-09-21T10:25:50.700Z,99.90
2018-09-21T10:28:19.297Z,99.90
2018-09-21T10:30:47.911Z,99.90
2018-09-21T10:33:16.391Z,99.90
2018-09-21T10:35:44.849Z,99.90
2018-09-21T10:38:13.455Z,99.90
2018-09-21T10:40:42.077Z,99.90
2018-09-21T10:43:10.710Z,99.90
2018-09-21T10:45:39.101Z,99.90
2018-09-21T10:48:07.601Z,99.90
2018-09-21T10:50:36.151Z,99.90
2018-09-21T10:53:04.620Z,99.90
2018-09-21T10:55:33.214Z,99.90
2018-09-21T10:58:01.689Z,99.90
2018-09-21T11:00:30.253Z,99.90
2018-09-21T11:02:58.808Z,99.90
2018-09-21T11:05:27.393Z,99.90
2018-09-21T11:07:56.028Z,99.90
2018-09-21T11:10:24.505Z,99.90
2018-09-21T11:12:53.012Z,99.90
2018-09-21T11:15:21.517Z,99.90
2018-09-21T11:17:49.968Z,99.90
2018-09-21T11:20:18.482Z,99.90
2018-09-21T11:22:47.009Z,99.90
2018-09-21T11:25:15.508Z,99.90
2018-09-21T11:27:44.017Z,99.90
2018-09-21T11:30:12.469Z,99.90
2018-09-21T11:32:41.076Z,99.90
2018-09-21T11:35:09.552Z,99.90
2018-09-21T11:37:38.001Z,99.90
2018-09-21T11:40:06.573Z,99.90
2018-09-21T11:42:35.073Z,99.90
2018-09-21T11:45:03.642Z,99.90
2018-09-21T11:47:32.262Z,99.90
2018-09-21T11:50:00.730Z,99.90
2018-09-21T11:52:29.227Z,99.90
2018-09-21T11:54:57.705Z,99.90
2018-09-21T11:57:26.182Z,99.90
2018-09-21T11:59:54.828Z,99.90
2018-09-21T12:02:23.345Z,99.90
2018-09-21T12:04:51.851Z,99.90
2018-09-21T12:07:20.556Z,99.90
2018-09-21T12:09:49.153Z,99.90
2018-09-21T12:12:17.665Z,99.90
2018-09-21T12:14:46.209Z,99.90
2018-09-21T12:17:14.640Z,99.90
2018-09-21T12:19:43.121Z,99.90
2018-09-21T12:22:11.643Z,99.90
2018-09-21T12:24:40.248Z,99.90
2018-09-21T12:27:09.357Z,99.90
2018-09-21T12:29:37.873Z,99.90
2018-09-21T12:32:06.377Z,99.90
2018-09-21T12:34:34.861Z,99.90
2018-09-21T12:37:03.310Z,99.90
2018-09-21T12:39:31.785Z,99.90
2018-09-21T12:42:00.382Z,99.90
2018-09-21T12:44:29.358Z,99.90
2018-09-21T12:46:57.920Z,99.90
2018-09-21T12:49:26.443Z,99.90
2018-09-21T12:51:55.067Z,99.90
2018-09-21T12:54:23.511Z,99.90
2018-09-21T12:56:52.064Z,99.90
2018-09-21T12:59:20.613Z,99.90
2018-09-21T13:01:49.101Z,99.90
2018-09-21T13:04:17.589Z,99.90
2018-09-21T13:06:46.061Z,99.90
2018-09-21T13:09:14.480Z,99.90
2018-09-21T13:11:43.446Z,99.90
2018-09-21T13:14:11.977Z,99.90
2018-09-21T13:16:40.493Z,99.90
2018-09-21T13:19:09.020Z,99.90
2018-09-21T13:21:37.544Z,99.90
2018-09-21T13:24:06.036Z,99.90
2018-09-21T13:26:34.574Z,99.90
2018-09-21T13:29:03.081Z,99.90
2018-09-21T13:38:34.917Z,99.90
2018-09-21T13:41:03.386Z,99.90
2018-09-21T13:43:31.873Z,99.90
2018-09-21T13:46:00.394Z,99.90
2018-09-21T13:48:29.001Z,99.90
2018-09-21T13:50:57.496Z,99.90
2018-09-21T13:53:26.022Z,99.90
2018-09-21T13:55:54.465Z,99.90
2018-09-21T13:58:22.960Z,99.90
2018-09-21T14:00:51.425Z,99.90
2018-09-21T14:03:19.949Z,99.90
2018-09-21T14:05:48.383Z,99.90
2018-09-21T14:08:16.970Z,99.90
2018-09-21T14:10:45.517Z,99.90
2018-09-21T14:13:14.030Z,99.90
2018-09-21T14:15:42.609Z,99.90
2018-09-21T14:18:11.137Z,99.90
2018-09-21T14:20:39.630Z,99.90
2018-09-21T14:23:08.049Z,99.90
2018-09-21T14:25:36.613Z,99.90
2018-09-21T14:28:05.176Z,99.90
2018-09-21T14:30:33.728Z,99.90
2018-09-21T14:33:02.240Z,99.90
2018-09-21T14:35:30.905Z,99.90
2018-09-21T14:37:59.368Z,99.90
2018-09-21T14:40:27.973Z,99.90
2018-09-21T14:42:56.499Z,99.90
2018-09-21T14:45:25.065Z,99.90
2018-09-21T14:47:53.544Z,99.90
2018-09-21T14:50:22.583Z,99.90
2018-09-21T14:52:51.150Z,99.90
2018-09-21T14:55:19.681Z,99.90
2018-09-21T14:57:48.138Z,99.90
2018-09-21T15:00:16.620Z,99.90
2018-09-21T15:02:45.109Z,99.90
2018-09-21T15:05:13.640Z,99.90
2018-09-21T15:07:42.145Z,99.90
2018-09-21T15:10:10.726Z,99.90
2018-09-21T15:12:39.309Z,99.90
2018-09-21T15:15:07.922Z,99.90
2018-09-21T15:17:36.386Z,99.90
2018-09-21T15:20:04.929Z,99.90
2018-09-21T15:22:33.393Z,99.90
2018-09-21T15:25:01.913Z,99.90
2018-09-21T15:27:30.460Z,99.90
2018-09-21T15:29:58.959Z,99.60
2018-09-21T15:32:27.413Z,98.40
2018-09-21T15:34:55.912Z,98.30
2018-09-21T15:37:24.390Z,98.00
2018-09-21T15:39:52.938Z,97.10
2018-09-21T15:42:21.493Z,96.80
2018-09-21T15:44:50.033Z,96.80
2018-09-21T15:47:18.545Z,96.90
2018-09-21T15:49:47.291Z,96.70
2018-09-21T15:52:16.031Z,96.70
2018-09-21T15:54:44.657Z,96.80
2018-09-21T15:57:13.237Z,96.80
2018-09-21T15:59:41.764Z,96.90
2018-09-21T16:02:10.241Z,96.70
2018-09-21T16:04:38.720Z,96.90
2018-09-21T16:07:07.232Z,97.10
2018-09-21T16:09:35.713Z,97.20
2018-09-21T16:12:04.253Z,97.00
2018-09-21T16:14:32.743Z,97.00
2018-09-21T16:18:25.752Z,97.10
2018-09-21T16:20:54.344Z,97.20
2018-09-21T16:23:24.734Z,97.00
2018-09-21T16:25:53.484Z,97.10
2018-09-21T16:28:21.968Z,97.10
2018-09-21T16:30:50.473Z,97.20
2018-09-21T16:33:18.966Z,97.30
2018-09-21T16:35:47.676Z,97.40
2018-09-21T16:39:40.667Z,97.60
2018-09-21T16:42:09.289Z,97.40
2018-09-21T16:44:37.915Z,97.40
2018-09-21T16:47:06.744Z,97.70
2018-09-21T16:49:35.424Z,97.80
2018-09-21T16:52:03.998Z,97.70
2018-09-21T16:54:32.541Z,97.70
2018-09-21T16:57:01.043Z,97.60
2018-09-21T16:59:29.933Z,97.70
2018-09-21T17:01:58.502Z,97.30
2018-09-21T17:04:26.995Z,97.80
2018-09-21T17:06:55.433Z,97.60
2018-09-21T17:09:23.985Z,97.50
2018-09-21T17:11:52.722Z,97.50
2018-09-21T17:14:21.290Z,97.10
2018-09-21T17:16:49.814Z,97.10
2018-09-21T17:19:18.349Z,97.10
2018-09-21T17:21:46.860Z,96.80
2018-09-21T17:24:15.377Z,96.70
2018-09-21T17:26:44.229Z,96.20
2018-09-21T17:29:12.704Z,96.70
2018-09-21T17:31:41.426Z,96.20
2018-09-21T17:34:10.044Z,95.80
2018-09-21T17:36:38.616Z,95.70
2018-09-21T17:39:10.595Z,95.70
2018-09-21T17:41:39.211Z,95.80
2018-09-21T17:44:08.074Z,95.80
2018-09-21T17:46:37.269Z,95.90
2018-09-21T17:49:06.079Z,96.20
2018-09-21T17:51:34.564Z,96.40
2018-09-21T17:54:03.447Z,96.60
2018-09-21T17:56:32.139Z,96.90
2018-09-21T17:59:00.637Z,97.20
2018-09-21T18:01:29.252Z,97.30
2018-09-21T18:05:01.178Z,97.50
2018-09-21T18:07:29.742Z,97.60
2018-09-21T18:09:58.345Z,97.90
2018-09-21T18:12:26.912Z,98.00
2018-09-21T18:14:55.484Z,98.20
2018-09-21T18:17:24.068Z,98.30
2018-09-21T18:19:52.883Z,98.40
2018-09-21T18:22:21.741Z,98.40
2018-09-21T18:24:50.871Z,98.60
2018-09-21T18:27:19.702Z,98.60
2018-09-21T18:29:48.268Z,98.70
2018-09-21T18:32:16.849Z,98.70
2018-09-21T18:34:45.509Z,98.80
2018-09-21T18:37:14.017Z,98.80
2018-09-21T18:39:42.540Z,98.90
2018-09-21T18:42:11.314Z,98.90
2018-09-21T18:44:39.992Z,99.00
2018-09-21T18:47:08.770Z,98.80
2018-09-21T18:49:37.476Z,98.80
2018-09-21T18:52:07.089Z,99.00
2018-09-21T18:54:35.885Z,99.10
2018-09-21T18:57:04.930Z,98.80
2018-09-21T18:59:33.677Z,98.90
2018-09-21T19:02:02.389Z,98.90
2018-09-21T19:04:31.993Z,98.80
2018-09-21T19:07:01.389Z,98.70
2018-09-21T19:09:30.837Z,99.00
2018-09-21T19:12:00.033Z,98.80
2018-09-21T19:14:28.605Z,98.90
2018-09-21T19:16:57.509Z,98.80
2018-09-21T19:19:26.330Z,98.60
2018-09-21T19:21:55.231Z,98.50
2018-09-21T19:24:23.781Z,98.20
2018-09-21T19:26:52.722Z,98.30
2018-09-21T19:29:21.509Z,98.30
2018-09-21T19:31:50.120Z,98.10
2018-09-21T19:34:18.846Z,98.10
2018-09-21T19:36:47.419Z,98.30
2018-09-21T19:39:16.025Z,98.40
2018-09-21T19:41:44.660Z,98.20
2018-09-21T19:44:13.184Z,98.40
2018-09-21T19:46:41.806Z,98.60
2018-09-21T19:49:10.421Z,98.60
2018-09-21T19:51:39.173Z,98.60
2018-09-21T19:54:07.991Z,98.60
2018-09-21T19:56:36.731Z,98.70
2018-09-21T19:59:05.333Z,98.90
2018-09-21T20:01:33.970Z,98.90
2018-09-21T20:04:02.516Z,99.10
2018-09-21T20:06:31.422Z,99.20
2018-09-21T20:08:59.985Z,99.30
2018-09-21T20:11:28.616Z,99.50
2018-09-21T20:13:57.297Z,99.70
2018-09-21T20:16:25.832Z,99.80
2018-09-21T20:18:54.373Z,99.90
2018-09-21T20:21:22.932Z,99.90
2018-09-21T20:23:51.413Z,99.90
2018-09-21T20:26:19.974Z,99.90
2018-09-21T20:28:48.529Z,99.90
2018-09-21T20:31:22.233Z,99.90
2018-09-21T20:33:50.756Z,99.90
2018-09-21T20:36:19.265Z,99.90
2018-09-21T20:38:47.717Z,99.90
2018-09-21T20:41:16.204Z,99.90
2018-09-21T20:43:44.688Z,99.90
2018-09-21T20:46:13.148Z,99.90
2018-09-21T20:48:41.637Z,99.90
2018-09-21T20:51:10.356Z,99.90
2018-09-21T20:53:38.848Z,99.90
2018-09-21T20:56:07.304Z,99.90
2018-09-21T20:58:35.784Z,99.90
2018-09-21T21:01:04.353Z,99.90
2018-09-21T21:03:32.854Z,99.90
2018-09-21T21:06:01.404Z,99.90
2018-09-21T21:08:30.092Z,99.90
2018-09-21T21:10:58.587Z,99.90
2018-09-21T21:13:27.149Z,99.90
2018-09-21T21:15:55.685Z,99.90
2018-09-21T21:18:24.246Z,99.90
2018-09-21T21:20:52.708Z,99.90
2018-09-21T21:23:21.222Z,99.90
2018-09-21T21:25:49.681Z,99.90
2018-09-21T21:28:18.180Z,99.90
2018-09-21T21:30:46.902Z,99.90
2018-09-21T21:33:15.504Z,99.90
2018-09-21T21:35:44.457Z,99.90
2018-09-21T21:38:13.355Z,99.90
2018-09-21T21:40:41.960Z,99.90
2018-09-21T21:43:10.464Z,99.90
2018-09-21T21:45:39.985Z,99.90
2018-09-21T21:48:08.468Z,99.90
2018-09-21T21:50:36.965Z,99.90
2018-09-21T21:53:05.508Z,99.90
2018-09-21T21:55:34.022Z,99.90
2018-09-21T21:58:02.609Z,99.90
2018-09-21T22:00:36.449Z,99.90
2018-09-21T22:03:04.984Z,99.90
2018-09-21T22:05:33.511Z,99.90
2018-09-21T22:08:01.970Z,99.90
2018-09-21T22:10:30.470Z,99.90
2018-09-21T22:13:04.362Z,99.90
2018-09-21T22:15:32.825Z,99.90
2018-09-21T22:18:01.298Z,99.90
2018-09-21T22:20:29.841Z,99.90
2018-09-21T22:22:58.299Z,99.90
2018-09-21T22:25:26.750Z,99.90
2018-09-21T22:27:55.277Z,99.90
2018-09-21T22:30:23.764Z,99.90
2018-09-21T22:32:52.226Z,99.90
2018-09-21T22:35:20.701Z,99.90
2018-09-21T22:37:49.201Z,99.90
2018-09-21T22:40:17.654Z,99.90
2018-09-21T22:42:46.138Z,99.90
2018-09-21T22:45:14.689Z,99.90
2018-09-21T22:47:43.180Z,99.90
2018-09-21T22:50:11.704Z,99.90
2018-09-21T22:52:40.187Z,99.90
2018-09-21T22:55:08.788Z,99.90
2018-09-21T22:57:37.232Z,99.90
2018-09-21T23:00:06.281Z,99.90
2018-09-21T23:02:34.847Z,99.90
2018-09-21T23:05:03.286Z,99.90
2018-09-21T23:07:31.750Z,99.90
2018-09-21T23:10:00.325Z,99.90
2018-09-21T23:12:28.891Z,99.90
2018-09-21T23:14:57.436Z,99.90
2018-09-21T23:17:25.901Z,99.90
2018-09-21T23:19:54.368Z,99.90
2018-09-21T23:22:22.857Z,99.90
2018-09-21T23:24:51.469Z,99.90
2018-09-21T23:27:19.944Z,99.90
2018-09-21T23:29:48.417Z,99.90
2018-09-21T23:32:16.880Z,99.90
2018-09-21T23:34:45.384Z,99.90
2018-09-21T23:37:13.824Z,99.90
2018-09-21T23:39:42.432Z,99.90
2018-09-21T23:42:10.893Z,99.90
2018-09-21T23:44:39.411Z,99.90
2018-09-21T23:47:07.869Z,99.90
2018-09-21T23:49:36.358Z,99.90
2018-09-21T23:52:05.285Z,99.90
2018-09-21T23:54:33.764Z,99.90
2018-09-21T23:57:02.204Z,99.90
2018-09-21T23:59:30.762Z,99.90
